Wicked — WDI3709 — position and weather

sailwx.info

Track history (hours):
 
Tides and Currents Weather Stations Pressure Air Temp Water Temp Dewpoint Dewpoint Depression Visibility Wind Speed Wind Dir Waves Ship Positions

Wicked

Owner: Boone, Kelby, irvine, CA. More information available from US FCC via Universal Licensing System and Coast Guard Vessel Documentation Center.

Last reported at 2018-Apr-16 21:24 UTC. Time now 2018-Jun-18 11:34 UTC.
Position N 33°20' W 117°42'.
Warning: this ship's position is months out of date.

Type: Pleasure craft. MMSI: 367691110.

Date/timePositionNaut miles runAvg speedWind from/ knotsBaromVisibWave heightAir tempDewpointWater temp
2018-Apr-16 21:24N 33°20' W 117°42'4 9.8
2018-Apr-16 21:00N 33°16' W 117°40'6 9.9
2018-Apr-16 20:26N 33°11' W 117°37'4 9.8
2018-Apr-16 20:00N 33°08' W 117°34'510.0
2018-Apr-16 19:30N 33°03' W 117°32'5 9.9
2018-Apr-16 19:00N 32°59' W 117°29'5 9.9
2018-Apr-16 18:30N 32°55' W 117°26'5 9.8
2018-Apr-16 17:59N 32°50' W 117°23'  
2018-Apr-09 13:41N 32°43' W 117°21'2 9.7
2018-Apr-09 13:29N 32°45' W 117°22'5 9.4
2018-Apr-09 13:00N 32°48' W 117°26'5 9.3
2018-Apr-09 12:29N 32°53' W 117°28'5 9.4
2018-Apr-09 11:58N 32°57' W 117°31'4 9.2
2018-Apr-09 11:30N 33°01' W 117°33'5 9.2
2018-Apr-09 11:00N 33°05' W 117°35'5 9.4
2018-Apr-09 10:30N 33°09' W 117°38'13 9.5
2018-Apr-09 09:06N 33°21' W 117°45'1 9.7
2018-Apr-09 09:00N 33°22' W 117°45'  
Track history (hours):
 
Tides and Currents Weather Stations Pressure Air Temp Water Temp Dewpoint Dewpoint Depression Visibility Wind Speed Wind Dir Waves Ship Positions

Wicked

Owner: Boone, Kelby, irvine, CA. More information available from US FCC via Universal Licensing System and Coast Guard Vessel Documentation Center.

Last reported at 2018-Apr-16 21:24 UTC. Time now 2018-Jun-18 11:34 UTC.
Position N 33°20' W 117°42'.
Warning: this ship's position is months out of date.

Type: Pleasure craft. MMSI: 367691110.

Date/timePositionNaut miles runAvg speedWind from/ knotsBaromVisibWave heightAir tempDewpointWater temp
2018-Apr-16 21:24N 33°20' W 117°42'4 9.8
2018-Apr-16 21:00N 33°16' W 117°40'6 9.9
2018-Apr-16 20:26N 33°11' W 117°37'4 9.8
2018-Apr-16 20:00N 33°08' W 117°34'510.0
2018-Apr-16 19:30N 33°03' W 117°32'5 9.9
2018-Apr-16 19:00N 32°59' W 117°29'5 9.9
2018-Apr-16 18:30N 32°55' W 117°26'5 9.8
2018-Apr-16 17:59N 32°50' W 117°23'  
2018-Apr-09 13:41N 32°43' W 117°21'2 9.7
2018-Apr-09 13:29N 32°45' W 117°22'5 9.4
2018-Apr-09 13:00N 32°48' W 117°26'5 9.3
2018-Apr-09 12:29N 32°53' W 117°28'5 9.4
2018-Apr-09 11:58N 32°57' W 117°31'4 9.2
2018-Apr-09 11:30N 33°01' W 117°33'5 9.2
2018-Apr-09 11:00N 33°05' W 117°35'5 9.4
2018-Apr-09 10:30N 33°09' W 117°38'13 9.5
2018-Apr-09 09:06N 33°21' W 117°45'1 9.7
2018-Apr-09 09:00N 33°22' W 117°45'  

Dump ship's entire track history